Flight Track Log - Related Links

Times and Time Zones

All times are in EDT time to prevent confusion due to time zone crossing. See the SWA830 flight status page for this flight to view local times or setup timezone preferences in your user account.

Time Position Orientation Groundspeed Altitude Reporting Facility
EDT Latitude Longitude Course Direction KTS MPH feet Rate Location/Type
Sat 12:00:31 PM 37.7167 -122.2333 310° West 150 173 700  Level Northern Cal TRACON
Sat 12:01:31 PM 37.7500 -122.2833 310° West 192 221 3,000 2,250 Climbing Northern Cal TRACON
Sat 12:02:31 PM 37.7667 -122.3667 284° West 247 284 5,200 2,950 Climbing Northern Cal TRACON
Sat 12:03:31 PM 37.7333 -122.4500 243° Southwest 293 337 8,900 2,526 Climbing Northern Cal TRACON
Sat 12:04:25 PM 37.6667 -122.4667 191° South 300 345 10,000 1,941 Climbing Northern Cal TRACON
Sat 12:05:13 PM 37.6047 -122.4844 193° South 300 345 12,200 3,273 Climbing Oakland Center
Sat 12:06:15 PM 37.5286 -122.4603 166° South 309 356 16,000 3,317 Climbing Oakland Center
Sat 12:07:16 PM 37.4622 -122.3844 138° Southeast 322 371 19,000 3,000 Climbing Oakland Center
Sat 12:08:17 PM 37.3742 -122.2875 139° Southeast 350 403 22,100 2,537 Climbing Oakland Center
Sat 12:09:19 PM 37.2906 -122.1947 139° Southeast 398 458 24,200 2,146 Climbing Oakland Center
Sat 12:10:20 PM 37.2025 -122.0981 139° Southeast 418 481 26,500 2,390 Climbing Oakland Center
Sat 12:11:22 PM 37.1114 -121.9972 139° Southeast 435 501 29,100 2,634 Climbing Oakland Center
Sat 12:12:23 PM 37.0214 -121.8997 139° Southeast 428 493 31,900 1,902 Climbing Oakland Center
Sat 12:13:25 PM 36.9325 -121.8017 139° Southeast 427 491 33,000 537 Climbing Oakland Center
Sat 12:14:26 PM 36.8389 -121.7044 140° Southeast 434 499 33,000  Level Oakland Center
Sat 12:15:28 PM 36.7447 -121.6033 139° Southeast 447 514 33,000  Level Oakland Center
Sat 12:16:29 PM 36.6319 -121.4783 138° Southeast 451 519 33,000  Level Oakland Center
Sat 12:17:30 PM 36.5358 -121.3747 139° Southeast 455 524 33,000  Level Oakland Center
Sat 12:18:32 PM 36.4406 -121.2733 139° Southeast 451 519 33,000  Level Oakland Center
Sat 12:19:33 PM 36.3450 -121.1722 140° Southeast 451 519 33,000  Level Oakland Center
Sat 12:20:35 PM 36.2511 -121.0717 139° Southeast 445 512 33,000  Level Oakland Center
Sat 12:21:36 PM 36.1581 -120.9736 140° Southeast 439 505 33,000  Level Oakland Center
Sat 12:22:38 PM 36.0650 -120.8761 140° Southeast 439 505 33,000  Level Oakland Center
Sat 12:23:39 PM 35.9708 -120.7744 139° Southeast 444 511 33,000  Level Oakland Center
Sat 12:24:40 PM 35.8761 -120.6767 140° Southeast 443 510 33,000  Level Oakland Center
Sat 12:25:42 PM 35.7572 -120.5519 140° Southeast 460 529 33,000  Level Oakland Center
Sat 12:26:43 PM 35.6572 -120.4467 139° Southeast 469 540 33,000  Level Oakland Center
Sat 12:27:45 PM 35.5572 -120.3408 139° Southeast 470 541 33,000 -244 Level Oakland Center
Sat 12:28:46 PM 35.4575 -120.2222 136° Southeast 491 565 32,500 -732 Descending Oakland Center
Sat 12:29:48 PM 35.3603 -120.1039 135° Southeast 484 557 31,500 -976 Descending Oakland Center
Sat 12:30:49 PM 35.2667 -119.9903 135° Southeast 475 547 30,500 -875 Descending Oakland Center
Sat 12:31:24 PM 35.2306 -119.9464 135° Southeast 472 543 30,100 -980 Descending Los Angeles Center
Sat 12:32:27 PM 35.1197 -119.8108 135° Southeast 468 539 28,900 -1,248 Descending Los Angeles Center
Sat 12:33:29 PM 35.0297 -119.7022 135° Southeast 457 526 27,500 -1,984 Descending Los Angeles Center
Sat 12:34:31 PM 34.9428 -119.5983 136° Southeast 440 506 24,800 -2,565 Descending Los Angeles Center
Sat 12:35:33 PM 34.8614 -119.4972 134° Southeast 422 486 22,200 -2,710 Descending Los Angeles Center
Sat 12:36:35 PM 34.7669 -119.3842 135° Southeast 399 459 19,200 -2,710 Descending Los Angeles Center
Sat 12:37:37 PM 34.6914 -119.2922 135° Southeast 387 445 16,600 -2,419 Descending Los Angeles Center
Sat 12:38:39 PM 34.6192 -119.2064 136° Southeast 367 422 14,200 -2,177 Descending Los Angeles Center
Sat 12:39:41 PM 34.5539 -119.1325 137° Southeast 354 407 12,100 -1,645 Descending Los Angeles Center
Sat 12:40:43 PM 34.4775 -119.0403 135° Southeast 309 356 10,800 -1,113 Descending Los Angeles Center
Sat 12:41:45 PM 34.4219 -118.9675 133° Southeast 291 335 9,800 -926 Descending Los Angeles Center
Sat 12:42:59 PM 34.3750 -118.8881 126° Southeast 289 333 8,700 -1,270 Descending Los Angeles Center
Sat 12:44:02 PM 34.3139 -118.7953 129° Southeast 292 336 6,900 -920 Descending Los Angeles Center
Sat 12:45:16 PM 34.2697 -118.7219 126° Southeast 276 318 6,600 -662 Descending Los Angeles Center
Sat 12:46:18 PM 34.2089 -118.6244 127° Southeast 265 305 5,400 -1,306 Descending Los Angeles Center
Sat 12:47:20 PM 34.1997 -118.5528 99° East 243 280 3,900 -1,200 Descending Los Angeles Center
Sat 12:48:23 PM 34.1997 -118.4808 90° East 226 260 2,900 -1,104 Descending Los Angeles Center
Sat 12:49:25 PM 34.1992 -118.4236 91° East 199 229 1,600 -919 Descending Los Angeles Center
Sat 12:50:27 PM 34.1983 -118.3756 91° East 172 198 1,000 -581 Descending Los Angeles Center

Login

Don't have an account? Register now (free) for customized features, flight alerts, and more!